Time;durP1;ratioP1;P1;durP2;ratioP2;P2;SDS_P1;SDS_P2;PMS_P1;PMS_P2;Temp;Humidity;BMP_temperature;BMP_pressure;BME280_temperature;BME280_humidity;BME280_pressure;Samples;Min_cycle;Max_cycle;Signal;HPM_P1;HPM_P2
2022/04/30 00:01:01;;;;;;;9.27;4.65;;;;;;;;;;5017253;28;20323;-80
2022/04/30 00:03:32;;;;;;;11.20;4.80;;;;;;;;;;5001895;28;20081;-79
2022/04/30 00:06:03;;;;;;;10.27;4.43;;;;;;;;;;5017469;28;20867;-79
2022/04/30 00:08:32;;;;;;;11.93;5.07;;;;;;;;;;5013430;28;20047;-80
2022/04/30 00:11:02;;;;;;;11.68;5.00;;;;;;;;;;5017245;28;20105;-80
2022/04/30 00:13:34;;;;;;;12.00;5.00;;;;;;;;;;5018957;28;20084;-80
2022/04/30 00:16:04;;;;;;;11.18;4.90;;;;;;;;;;5018071;28;20129;-79
2022/04/30 00:18:36;;;;;;;12.95;5.18;;;;;;;;;;5013836;28;20106;-79
2022/04/30 00:21:06;;;;;;;11.98;4.97;;;;;;;;;;5016777;28;20050;-80
2022/04/30 00:23:36;;;;;;;12.43;4.93;;;;;;;;;;5016549;28;20050;-80
2022/04/30 00:26:09;;;;;;;12.27;4.88;;;;;;;;;;5017273;28;20034;-79
2022/04/30 00:28:38;;;;;;;11.20;5.00;;;;;;;;;;5013877;28;20053;-79
2022/04/30 00:31:08;;;;;;;11.48;4.75;;;;;;;;;;5017265;28;20062;-79
2022/04/30 00:33:37;;;;;;;14.02;5.35;;;;;;;;;;5016359;28;20050;-79
2022/04/30 00:36:07;;;;;;;11.85;4.65;;;;;;;;;;5025294;28;20055;-80
2022/04/30 00:38:37;;;;;;;13.48;5.57;;;;;;;;;;5014715;28;20053;-79
2022/04/30 00:41:08;;;;;;;8.95;4.90;;;;;;;;;;5015103;28;20046;-80
2022/04/30 00:43:47;;;;;;;11.10;4.70;;;;;;;;;;5019436;28;20090;-79
2022/04/30 00:46:22;;;;;;;11.88;4.88;;;;;;;;;;5016385;28;20051;-80
2022/04/30 00:48:52;;;;;;;13.10;5.68;;;;;;;;;;5016219;28;20117;-78
2022/04/30 00:51:27;;;;;;;12.65;5.40;;;;;;;;;;5016656;28;20684;-79
2022/04/30 00:53:57;;;;;;;14.48;5.40;;;;;;;;;;5016322;28;20056;-79
2022/04/30 00:56:35;;;;;;;11.85;4.97;;;;;;;;;;4997143;28;20051;-80
2022/04/30 00:59:06;;;;;;;11.98;5.68;;;;;;;;;;5015331;28;20059;-79
2022/04/30 01:01:36;;;;;;;10.93;5.07;;;;;;;;;;5017559;28;20055;-79
2022/04/30 01:04:07;;;;;;;15.55;5.45;;;;;;;;;;5017378;28;20069;-79
2022/04/30 01:06:36;;;;;;;12.82;5.43;;;;;;;;;;5016890;28;20054;-79
2022/04/30 01:09:10;;;;;;;10.85;4.78;;;;;;;;;;5028221;28;20316;-79
2022/04/30 01:11:40;;;;;;;14.07;5.50;;;;;;;;;;5017270;28;20153;-79
2022/04/30 01:14:09;;;;;;;15.43;5.65;;;;;;;;;;5017404;28;20062;-79
2022/04/30 01:16:39;;;;;;;13.57;5.68;;;;;;;;;;5006063;28;20054;-79
2022/04/30 01:19:10;;;;;;;11.50;5.17;;;;;;;;;;4998561;28;20063;-80
2022/04/30 01:21:41;;;;;;;12.77;5.40;;;;;;;;;;5003723;28;20065;-79
2022/04/30 01:24:10;;;;;;;11.65;5.35;;;;;;;;;;5018218;28;20090;-79
2022/04/30 01:26:40;;;;;;;12.63;5.68;;;;;;;;;;5016269;28;20058;-80
2022/04/30 01:29:10;;;;;;;;;;;;;;;;;;5019220;28;20129;-79
2022/04/30 01:37:23;;;;;;;12.63;5.95;;;;;;;;;;5005104;28;20062;-80
2022/04/30 01:39:57;;;;;;;13.13;5.80;;;;;;;;;;5008046;28;20051;-80
2022/04/30 01:42:29;;;;;;;12.95;5.32;;;;;;;;;;5010528;28;20054;-79
2022/04/30 01:45:01;;;;;;;15.35;5.50;;;;;;;;;;5006839;28;20058;-80
2022/04/30 01:47:33;;;;;;;14.75;6.03;;;;;;;;;;5005033;28;20055;-79
2022/04/30 01:50:03;;;;;;;15.40;5.38;;;;;;;;;;5007912;28;20061;-80
2022/04/30 01:52:36;;;;;;;13.93;5.70;;;;;;;;;;5005725;28;20058;-80
2022/04/30 01:55:07;;;;;;;11.60;5.43;;;;;;;;;;4998821;28;20050;-80
2022/04/30 01:57:38;;;;;;;12.50;5.38;;;;;;;;;;5008061;28;20069;-79
2022/04/30 02:00:08;;;;;;;11.10;5.68;;;;;;;;;;5007952;28;20054;-80
2022/04/30 02:02:40;;;;;;;13.82;6.40;;;;;;;;;;5005990;28;20054;-80
2022/04/30 02:05:12;;;;;;;14.48;6.15;;;;;;;;;;5003559;28;20068;-79
2022/04/30 02:07:40;;;;;;;;;;;;;;;;;;5009142;28;20052;-80
2022/04/30 02:10:10;;;;;;;14.32;5.97;;;;;;;;;;5023128;28;44714;-80
2022/04/30 02:12:46;;;;;;;13.05;5.00;;;;;;;;;;5006880;28;20046;-79
2022/04/30 02:15:17;;;;;;;10.82;5.43;;;;;;;;;;5003491;28;20050;-79
2022/04/30 02:17:47;;;;;;;10.23;5.20;;;;;;;;;;5007112;28;20046;-79
2022/04/30 02:20:24;;;;;;;12.98;5.15;;;;;;;;;;5005884;28;20058;-79
2022/04/30 02:22:54;;;;;;;11.30;5.38;;;;;;;;;;5007514;28;20506;-80
2022/04/30 02:25:21;;;;;;;12.75;5.00;;;;;;;;;;5022147;28;20070;-79
2022/04/30 02:27:51;;;;;;;11.98;5.65;;;;;;;;;;5007873;28;20052;-79
2022/04/30 02:30:22;;;;;;;12.13;5.95;;;;;;;;;;5003309;28;20797;-80
2022/04/30 02:32:52;;;;;;;14.73;5.53;;;;;;;;;;5004763;28;20448;-79
2022/04/30 02:35:25;;;;;;;10.95;5.38;;;;;;;;;;5005826;28;20485;-79
2022/04/30 02:37:54;;;;;;;11.05;5.45;;;;;;;;;;5007748;28;20141;-80
2022/04/30 02:40:24;;;;;;;13.45;4.80;;;;;;;;;;5007576;28;20061;-80
2022/04/30 02:43:02;;;;;;;12.23;5.78;;;;;;;;;;5006564;28;20476;-79
2022/04/30 02:45:36;;;;;;;11.55;5.53;;;;;;;;;;5007601;28;21979;-79
2022/04/30 02:48:07;;;;;;;15.57;6.50;;;;;;;;;;5004495;28;20910;-79
2022/04/30 02:50:38;;;;;;;12.15;5.50;;;;;;;;;;5021158;28;20054;-79
2022/04/30 02:53:08;;;;;;;12.38;5.22;;;;;;;;;;5005539;28;20144;-79
2022/04/30 02:55:40;;;;;;;12.05;4.82;;;;;;;;;;5007337;28;20090;-79
2022/04/30 03:00:58;;;;;;;12.93;5.60;;;;;;;;;;5002173;28;20058;-79
2022/04/30 03:03:31;;;;;;;12.27;5.55;;;;;;;;;;5013295;28;20148;-80
2022/04/30 03:06:01;;;;;;;13.13;5.38;;;;;;;;;;5026826;28;20084;-79
2022/04/30 03:08:32;;;;;;;12.65;5.57;;;;;;;;;;5020382;28;20524;-79
2022/04/30 03:11:03;;;;;;;10.73;5.43;;;;;;;;;;5005039;28;20061;-79
2022/04/30 03:13:36;;;;;;;14.32;5.55;;;;;;;;;;5006549;28;20092;-79
2022/04/30 03:21:44;;;;;;;15.75;5.50;;;;;;;;;;5007017;28;20073;-79
2022/04/30 03:24:22;;;;;;;10.32;5.15;;;;;;;;;;5005761;28;20065;-79
2022/04/30 03:26:51;;;;;;;12.80;5.15;;;;;;;;;;5004520;28;20062;-79
2022/04/30 03:29:20;;;;;;;13.45;6.05;;;;;;;;;;5004939;28;20215;-80
2022/04/30 03:31:51;;;;;;;10.02;5.38;;;;;;;;;;5017842;28;20061;-80
2022/04/30 03:34:21;;;;;;;11.15;5.35;;;;;;;;;;5018092;28;20127;-80
2022/04/30 03:36:52;;;;;;;11.80;4.70;;;;;;;;;;5005749;28;20061;-80
2022/04/30 03:39:22;;;;;;;11.68;5.53;;;;;;;;;;5004561;28;20062;-80
2022/04/30 03:41:52;;;;;;;13.60;5.45;;;;;;;;;;5004643;28;20056;-79
2022/04/30 03:44:21;;;;;;;13.25;4.50;;;;;;;;;;5011463;28;20154;-80
2022/04/30 03:46:53;;;;;;;11.68;4.97;;;;;;;;;;5006202;28;20054;-79
2022/04/30 03:49:21;;;;;;;11.27;5.32;;;;;;;;;;5002760;28;20061;-80
2022/04/30 03:51:51;;;;;;;12.02;5.22;;;;;;;;;;5006807;28;20061;-79
2022/04/30 03:54:20;;;;;;;10.90;4.65;;;;;;;;;;5005098;28;20097;-80
2022/04/30 03:56:52;;;;;;;12.75;5.45;;;;;;;;;;5007056;28;20058;-79
2022/04/30 03:59:24;;;;;;;10.02;5.13;;;;;;;;;;5003771;28;20185;-80
2022/04/30 04:01:57;;;;;;;12.43;5.35;;;;;;;;;;5004968;28;20524;-79
2022/04/30 04:04:26;;;;;;;11.77;5.90;;;;;;;;;;5006175;28;20058;-79
2022/04/30 04:06:57;;;;;;;11.55;5.13;;;;;;;;;;5006086;28;20050;-79
2022/04/30 04:09:27;;;;;;;9.25;4.90;;;;;;;;;;4985431;28;20085;-79
2022/04/30 04:11:56;;;;;;;13.52;4.85;;;;;;;;;;4996348;28;20046;-79
2022/04/30 04:20:01;;;;;;;13.50;4.93;;;;;;;;;;5006369;28;20061;-79
2022/04/30 04:22:31;;;;;;;12.02;5.35;;;;;;;;;;5002980;28;20050;-79
2022/04/30 04:27:45;;;;;;;9.98;4.82;;;;;;;;;;5005000;28;20061;-80
2022/04/30 04:30:28;;;;;;;11.55;5.47;;;;;;;;;;4985655;28;20054;-80
2022/04/30 04:32:59;;;;;;;11.55;5.40;;;;;;;;;;5002446;28;20149;-80
2022/04/30 04:35:27;;;;;;;14.40;5.55;;;;;;;;;;5000972;28;20062;-81
2022/04/30 04:37:58;;;;;;;12.98;5.00;;;;;;;;;;4998017;28;20094;-80
2022/04/30 04:40:29;;;;;;;13.20;5.20;;;;;;;;;;5003940;28;20100;-81
2022/04/30 04:42:59;;;;;;;11.10;5.53;;;;;;;;;;5004329;28;20054;-81
2022/04/30 04:45:29;;;;;;;13.07;5.35;;;;;;;;;;5002600;28;20111;-80
2022/04/30 04:47:56;;;;;;;13.02;5.35;;;;;;;;;;5001534;28;20117;-80
2022/04/30 04:50:27;;;;;;;13.00;5.53;;;;;;;;;;5009365;28;20059;-80
2022/04/30 04:52:58;;;;;;;12.90;5.30;;;;;;;;;;5003433;28;20055;-80
2022/04/30 04:55:28;;;;;;;12.95;5.47;;;;;;;;;;5014561;28;20073;-80
2022/04/30 04:58:01;;;;;;;16.17;5.22;;;;;;;;;;5016743;28;20058;-80
2022/04/30 05:00:33;;;;;;;12.45;5.18;;;;;;;;;;5003356;28;20069;-80
2022/04/30 05:03:00;;;;;;;11.52;5.82;;;;;;;;;;4987637;28;20178;-80
2022/04/30 05:05:33;;;;;;;12.52;5.25;;;;;;;;;;5010172;28;20061;-79
2022/04/30 05:08:04;;;;;;;13.10;5.53;;;;;;;;;;5010845;28;20576;-79
2022/04/30 05:10:37;;;;;;;11.45;5.03;;;;;;;;;;5014080;28;20074;-80
2022/04/30 05:13:10;;;;;;;11.55;5.28;;;;;;;;;;5000830;28;20046;-80
2022/04/30 05:15:39;;;;;;;10.80;5.70;;;;;;;;;;5008123;28;20054;-79
2022/04/30 05:18:08;;;;;;;11.88;5.60;;;;;;;;;;5003943;28;20552;-79
2022/04/30 05:20:38;;;;;;;16.33;6.43;;;;;;;;;;4987144;28;20514;-79
2022/04/30 05:23:09;;;;;;;11.20;5.35;;;;;;;;;;4998753;28;20054;-79
2022/04/30 05:25:40;;;;;;;16.25;5.72;;;;;;;;;;5005981;28;20997;-80
2022/04/30 05:28:11;;;;;;;12.55;5.75;;;;;;;;;;5004454;28;20125;-79
2022/04/30 05:30:42;;;;;;;12.93;6.10;;;;;;;;;;5007896;28;20859;-79
2022/04/30 05:33:13;;;;;;;15.68;5.75;;;;;;;;;;5006333;28;20141;-80
2022/04/30 05:35:43;;;;;;;11.40;5.53;;;;;;;;;;5003547;28;20820;-79
2022/04/30 05:38:12;;;;;;;16.98;5.95;;;;;;;;;;5005633;28;20503;-79
2022/04/30 05:40:40;;;;;;;11.65;5.47;;;;;;;;;;5007832;28;20851;-80
2022/04/30 05:43:10;;;;;;;13.48;6.55;;;;;;;;;;5009846;28;20658;-79
2022/04/30 05:45:39;;;;;;;12.43;5.97;;;;;;;;;;5013255;28;20057;-79
2022/04/30 05:48:09;;;;;;;15.45;6.15;;;;;;;;;;5010766;28;20677;-79
2022/04/30 05:50:39;;;;;;;15.07;7.05;;;;;;;;;;5012416;28;20084;-79
2022/04/30 05:53:09;;;;;;;15.82;6.38;;;;;;;;;;5006864;28;20058;-79
2022/04/30 05:55:39;;;;;;;15.05;6.57;;;;;;;;;;5013067;28;20106;-80
2022/04/30 05:58:08;;;;;;;14.57;6.57;;;;;;;;;;5010063;28;20098;-79
2022/04/30 06:00:38;;;;;;;11.05;6.47;;;;;;;;;;5013503;28;20058;-79
2022/04/30 06:03:07;;;;;;;19.40;6.32;;;;;;;;;;5012316;28;20097;-79
2022/04/30 06:05:37;;;;;;;12.32;6.25;;;;;;;;;;5006984;28;20054;-80
2022/04/30 06:08:07;;;;;;;15.55;6.25;;;;;;;;;;5010945;28;20061;-80
2022/04/30 06:10:37;;;;;;;16.10;6.53;;;;;;;;;;5011575;28;20090;-80
2022/04/30 06:13:07;;;;;;;13.45;6.15;;;;;;;;;;5009158;28;21106;-80
2022/04/30 06:15:37;;;;;;;18.38;6.63;;;;;;;;;;5007693;28;20047;-81
2022/04/30 06:18:08;;;;;;;15.43;6.95;;;;;;;;;;5009104;28;20042;-80
2022/04/30 06:20:39;;;;;;;13.38;6.90;;;;;;;;;;5013394;28;20056;-80
2022/04/30 06:23:07;;;;;;;13.70;6.68;;;;;;;;;;4991622;28;20054;-80
2022/04/30 06:25:36;;;;;;;14.90;6.93;;;;;;;;;;5007169;28;20110;-81
2022/04/30 06:28:08;;;;;;;15.00;7.00;;;;;;;;;;5011536;28;20098;-81
2022/04/30 06:30:37;;;;;;;13.43;6.72;;;;;;;;;;5013865;28;20069;-81
2022/04/30 06:33:08;;;;;;;12.13;6.22;;;;;;;;;;5006651;28;20061;-81
2022/04/30 06:35:37;;;;;;;15.73;7.43;;;;;;;;;;5009319;28;20051;-81
2022/04/30 06:38:08;;;;;;;13.63;6.70;;;;;;;;;;5009239;28;20054;-81
2022/04/30 06:40:36;;;;;;;13.80;6.72;;;;;;;;;;5020906;28;20054;-83
2022/04/30 06:43:08;;;;;;;12.40;7.03;;;;;;;;;;5010653;28;20129;-81
2022/04/30 06:45:36;;;;;;;14.85;6.90;;;;;;;;;;5006384;28;20050;-80
2022/04/30 06:48:02;;;;;;;12.23;6.47;;;;;;;;;;5026565;28;20102;-83
2022/04/30 06:50:28;;;;;;;14.13;6.50;;;;;;;;;;5010720;28;20138;-80
2022/04/30 06:58:26;;;;;;;13.57;6.60;;;;;;;;;;5010550;28;20058;-81
2022/04/30 07:03:24;;;;;;;14.30;6.88;;;;;;;;;;5015226;28;20509;-81
2022/04/30 07:05:51;;;;;;;16.80;7.30;;;;;;;;;;5008260;28;20065;-79
2022/04/30 07:08:18;;;;;;;16.25;8.65;;;;;;;;;;5008647;28;20057;-80
2022/04/30 07:10:44;;;;;;;15.70;8.95;;;;;;;;;;5005382;28;20136;-80
2022/04/30 07:13:10;;;;;;;20.50;9.85;;;;;;;;;;5006724;28;20130;-79
2022/04/30 07:15:37;;;;;;;19.48;9.60;;;;;;;;;;5009187;28;20501;-79
2022/04/30 07:18:03;;;;;;;11.50;6.90;;;;;;;;;;4992223;28;20867;-81
2022/04/30 07:20:29;;;;;;;10.25;6.40;;;;;;;;;;5010983;28;20058;-80
2022/04/30 07:22:56;;;;;;;12.38;6.25;;;;;;;;;;5008927;28;20554;-80
2022/04/30 07:25:22;;;;;;;9.90;5.95;;;;;;;;;;5005681;28;20134;-81
2022/04/30 07:27:51;;;;;;;9.75;5.65;;;;;;;;;;5001290;28;20058;-80
2022/04/30 07:30:18;;;;;;;13.43;6.10;;;;;;;;;;5009007;28;20073;-79
2022/04/30 07:32:44;;;;;;;12.70;6.13;;;;;;;;;;5007678;28;20058;-79
2022/04/30 07:35:10;;;;;;;11.77;5.78;;;;;;;;;;5010373;28;20054;-79
2022/04/30 07:37:37;;;;;;;9.88;5.95;;;;;;;;;;5007007;28;20188;-80
2022/04/30 07:40:03;;;;;;;13.80;5.75;;;;;;;;;;4998527;28;20150;-80
2022/04/30 07:42:30;;;;;;;9.65;5.20;;;;;;;;;;5009648;28;20054;-79
2022/04/30 07:44:59;;;;;;;13.15;5.25;;;;;;;;;;5008193;28;20058;-79
2022/04/30 07:47:26;;;;;;;9.38;5.15;;;;;;;;;;5009942;28;20137;-80
2022/04/30 07:49:52;;;;;;;8.32;5.00;;;;;;;;;;5008461;28;20116;-80
2022/04/30 07:52:18;;;;;;;9.55;5.00;;;;;;;;;;5008350;28;20130;-80
2022/04/30 07:54:45;;;;;;;9.15;4.38;;;;;;;;;;5008306;28;20493;-80
2022/04/30 07:57:16;;;;;;;8.25;4.80;;;;;;;;;;5007360;28;20065;-79
2022/04/30 07:59:44;;;;;;;10.80;4.50;;;;;;;;;;5007599;28;20046;-79
2022/04/30 08:02:10;;;;;;;9.63;4.43;;;;;;;;;;5008912;28;20110;-79
2022/04/30 08:04:37;;;;;;;6.85;3.83;;;;;;;;;;5008124;28;20807;-79
2022/04/30 08:07:03;;;;;;;8.95;4.32;;;;;;;;;;5008544;28;20059;-79
2022/04/30 08:09:33;;;;;;;6.55;3.67;;;;;;;;;;5006051;28;20058;-79
2022/04/30 08:12:02;;;;;;;6.85;3.80;;;;;;;;;;5007276;28;20058;-78
2022/04/30 08:14:29;;;;;;;9.00;4.32;;;;;;;;;;5002790;28;20050;-77
2022/04/30 08:16:55;;;;;;;6.55;3.90;;;;;;;;;;5006160;28;20157;-77
2022/04/30 08:19:21;;;;;;;8.52;3.72;;;;;;;;;;5006224;28;20050;-77
2022/04/30 08:21:48;;;;;;;7.57;4.05;;;;;;;;;;5004398;28;20153;-78
2022/04/30 08:24:35;;;;;;;8.38;4.00;;;;;;;;;;5004849;28;20054;-77
2022/04/30 08:27:01;;;;;;;6.32;3.50;;;;;;;;;;5002394;28;20064;-77
2022/04/30 08:29:28;;;;;;;7.22;3.90;;;;;;;;;;5006045;28;20056;-77
2022/04/30 08:31:54;;;;;;;8.68;4.30;;;;;;;;;;5005425;28;20511;-78
2022/04/30 08:34:21;;;;;;;6.43;3.63;;;;;;;;;;5005552;28;20058;-77
2022/04/30 08:36:48;;;;;;;9.48;4.03;;;;;;;;;;5016895;28;20058;-77
2022/04/30 08:39:14;;;;;;;7.97;4.07;;;;;;;;;;5005206;28;20256;-77
2022/04/30 08:41:42;;;;;;;9.05;4.00;;;;;;;;;;5005470;28;20058;-76
2022/04/30 08:44:12;;;;;;;11.70;4.68;;;;;;;;;;5000905;28;20144;-77
2022/04/30 08:46:39;;;;;;;7.18;3.63;;;;;;;;;;5003880;28;20125;-76
2022/04/30 08:49:06;;;;;;;5.93;3.60;;;;;;;;;;5001495;28;20066;-77
2022/04/30 08:51:37;;;;;;;7.78;3.47;;;;;;;;;;5001100;28;20141;-77
2022/04/30 08:54:09;;;;;;;8.32;3.85;;;;;;;;;;4997434;28;20058;-76
2022/04/30 08:56:39;;;;;;;9.40;3.60;;;;;;;;;;5002305;28;20145;-77
2022/04/30 08:59:08;;;;;;;7.00;3.25;;;;;;;;;;5002159;28;20054;-77
2022/04/30 09:01:49;;;;;;;8.15;3.47;;;;;;;;;;5004477;28;20149;-77
2022/04/30 09:04:19;;;;;;;9.82;3.30;;;;;;;;;;4999828;28;20054;-77
2022/04/30 09:06:50;;;;;;;6.60;3.23;;;;;;;;;;5002281;28;20058;-76
2022/04/30 09:09:33;;;;;;;7.70;3.33;;;;;;;;;;4996160;28;20294;-77
2022/04/30 09:12:13;;;;;;;6.60;3.63;;;;;;;;;;4999641;28;20058;-76
2022/04/30 09:14:42;;;;;;;6.97;3.40;;;;;;;;;;5002251;28;20054;-77
2022/04/30 09:17:10;;;;;;;6.78;3.35;;;;;;;;;;5003320;28;20197;-77
2022/04/30 09:19:54;;;;;;;7.22;3.50;;;;;;;;;;5003377;28;20596;-77
2022/04/30 09:22:33;;;;;;;6.63;3.40;;;;;;;;;;5004433;28;20506;-77
2022/04/30 09:25:04;;;;;;;7.63;3.45;;;;;;;;;;5002687;28;20057;-76
2022/04/30 09:27:51;;;;;;;6.15;3.28;;;;;;;;;;5003307;28;20062;-77
2022/04/30 09:30:29;;;;;;;6.75;3.47;;;;;;;;;;5001761;28;20054;-77
2022/04/30 09:33:03;;;;;;;9.15;3.25;;;;;;;;;;5001287;28;20060;-77
2022/04/30 09:38:15;;;;;;;6.68;3.47;;;;;;;;;;5003114;28;20085;-77
2022/04/30 09:40:54;;;;;;;5.45;3.20;;;;;;;;;;5001491;28;20055;-77
2022/04/30 09:43:23;;;;;;;6.32;2.80;;;;;;;;;;5004717;28;20129;-77
2022/04/30 09:45:49;;;;;;;5.85;2.50;;;;;;;;;;5001877;28;20153;-77
2022/04/30 09:53:58;;;;;;;6.90;2.85;;;;;;;;;;4999091;28;20145;-77
2022/04/30 09:56:27;;;;;;;7.40;2.75;;;;;;;;;;5002455;28;20149;-77
2022/04/30 09:58:54;;;;;;;6.95;3.50;;;;;;;;;;5004268;28;20065;-77
2022/04/30 10:01:20;;;;;;;6.68;3.28;;;;;;;;;;5006566;28;20112;-78
2022/04/30 10:03:51;;;;;;;7.93;3.58;;;;;;;;;;5003682;28;20177;-77
2022/04/30 10:06:18;;;;;;;7.05;3.05;;;;;;;;;;5004232;28;20090;-77
2022/04/30 10:08:45;;;;;;;6.70;2.88;;;;;;;;;;5005081;28;20165;-77
2022/04/30 10:11:34;;;;;;;6.53;2.83;;;;;;;;;;5021444;28;20072;-77
2022/04/30 10:14:05;;;;;;;6.60;3.28;;;;;;;;;;5011353;28;20165;-77
2022/04/30 10:16:31;;;;;;;6.43;3.17;;;;;;;;;;5032329;28;20054;-77
2022/04/30 10:18:59;;;;;;;7.18;2.80;;;;;;;;;;5004706;28;20159;-77
2022/04/30 10:21:25;;;;;;;9.52;3.60;;;;;;;;;;5006042;28;20054;-78
2022/04/30 10:24:01;;;;;;;6.60;3.33;;;;;;;;;;5007474;28;20711;-78
2022/04/30 10:26:28;;;;;;;8.35;3.15;;;;;;;;;;5004609;28;20141;-78
2022/04/30 10:28:58;;;;;;;5.75;3.28;;;;;;;;;;4994340;28;20050;-78
2022/04/30 10:31:24;;;;;;;6.25;3.20;;;;;;;;;;5003908;28;20415;-78
2022/04/30 10:33:51;;;;;;;8.13;3.75;;;;;;;;;;5005302;28;20064;-78
2022/04/30 10:36:18;;;;;;;8.30;3.40;;;;;;;;;;5003639;28;20134;-78
2022/04/30 10:38:53;;;;;;;8.43;3.30;;;;;;;;;;5006536;28;20303;-78
2022/04/30 10:41:19;;;;;;;7.15;3.05;;;;;;;;;;5006005;28;20133;-77
2022/04/30 10:43:45;;;;;;;8.82;3.45;;;;;;;;;;5002493;28;20054;-77
2022/04/30 10:46:19;;;;;;;7.05;3.20;;;;;;;;;;5006365;28;20065;-78
2022/04/30 10:48:46;;;;;;;7.30;3.17;;;;;;;;;;5005578;28;20050;-78
2022/04/30 10:51:14;;;;;;;6.05;3.28;;;;;;;;;;5026649;28;20103;-78
2022/04/30 10:53:42;;;;;;;11.55;3.50;;;;;;;;;;5005026;28;20602;-78
2022/04/30 10:56:09;;;;;;;6.43;2.97;;;;;;;;;;5003478;28;20055;-78
2022/04/30 10:58:35;;;;;;;5.85;2.90;;;;;;;;;;4989780;28;20056;-78
2022/04/30 11:01:11;;;;;;;7.03;3.17;;;;;;;;;;5000893;28;20060;-78
2022/04/30 11:03:38;;;;;;;6.70;3.00;;;;;;;;;;5019271;28;20099;-78
2022/04/30 11:06:04;;;;;;;6.68;3.13;;;;;;;;;;5006024;28;20181;-78
2022/04/30 11:08:30;;;;;;;6.00;3.00;;;;;;;;;;5005271;28;20082;-77
2022/04/30 11:10:57;;;;;;;6.13;3.47;;;;;;;;;;5007293;28;20144;-78
2022/04/30 11:13:24;;;;;;;6.97;3.00;;;;;;;;;;5007090;28;20054;-78
2022/04/30 11:15:50;;;;;;;6.82;2.70;;;;;;;;;;5008247;28;20058;-78
2022/04/30 11:18:20;;;;;;;6.32;2.78;;;;;;;;;;5018154;28;20055;-78
2022/04/30 11:20:46;;;;;;;6.38;3.17;;;;;;;;;;5005318;28;20897;-78
2022/04/30 11:23:25;;;;;;;7.45;3.00;;;;;;;;;;5005299;28;20058;-78
2022/04/30 11:25:51;;;;;;;7.28;2.83;;;;;;;;;;5002000;28;20054;-77
2022/04/30 11:28:18;;;;;;;5.65;2.70;;;;;;;;;;5008350;28;20606;-77
2022/04/30 11:30:45;;;;;;;7.38;3.05;;;;;;;;;;5005897;28;20055;-78
2022/04/30 11:33:12;;;;;;;9.45;3.33;;;;;;;;;;5009761;28;20433;-78
2022/04/30 11:35:38;;;;;;;9.07;5.47;;;;;;;;;;5006738;28;20204;-78
2022/04/30 11:38:09;;;;;;;6.10;3.47;;;;;;;;;;5003789;28;20059;-78
2022/04/30 11:40:35;;;;;;;8.80;3.67;;;;;;;;;;5003706;28;20515;-78
2022/04/30 11:43:02;;;;;;;7.43;3.40;;;;;;;;;;5005437;28;20118;-78
2022/04/30 11:45:29;;;;;;;7.10;3.17;;;;;;;;;;5006825;28;20076;-78
2022/04/30 11:47:56;;;;;;;6.47;3.30;;;;;;;;;;5006298;28;20054;-78
2022/04/30 11:50:22;;;;;;;8.00;3.00;;;;;;;;;;5012498;28;20924;-78
2022/04/30 11:52:50;;;;;;;5.82;2.90;;;;;;;;;;5004254;28;20057;-78
2022/04/30 11:55:17;;;;;;;6.47;2.90;;;;;;;;;;5007081;28;20060;-78
2022/04/30 11:57:44;;;;;;;6.80;2.88;;;;;;;;;;5007661;28;20604;-78
2022/04/30 12:00:11;;;;;;;7.95;3.75;;;;;;;;;;5006936;28;20209;-78
2022/04/30 12:02:39;;;;;;;8.40;2.85;;;;;;;;;;5008523;28;20093;-78
2022/04/30 12:05:07;;;;;;;5.65;2.90;;;;;;;;;;5006724;28;20509;-78
2022/04/30 12:07:40;;;;;;;7.80;2.90;;;;;;;;;;5007397;28;20057;-78
2022/04/30 12:10:19;;;;;;;7.53;2.90;;;;;;;;;;5008038;28;20172;-78
2022/04/30 12:12:46;;;;;;;7.70;2.63;;;;;;;;;;5005028;28;21048;-78
2022/04/30 12:15:19;;;;;;;5.55;2.88;;;;;;;;;;5005764;28;20141;-78
2022/04/30 12:17:46;;;;;;;8.13;2.67;;;;;;;;;;5002643;28;20060;-78
2022/04/30 12:25:49;;;;;;;7.45;2.60;;;;;;;;;;5005065;28;20065;-78
2022/04/30 12:28:16;;;;;;;5.55;2.63;;;;;;;;;;5004270;28;20061;-78
2022/04/30 12:30:49;;;;;;;9.07;2.50;;;;;;;;;;5006371;28;20510;-78
2022/04/30 12:33:16;;;;;;;6.28;2.50;;;;;;;;;;5005121;28;20133;-78
2022/04/30 12:35:42;;;;;;;5.30;2.22;;;;;;;;;;5004877;28;20060;-77
2022/04/30 12:38:13;;;;;;;9.65;2.92;;;;;;;;;;5005580;28;20129;-78
2022/04/30 12:40:43;;;;;;;8.80;3.22;;;;;;;;;;5003678;28;20086;-78
2022/04/30 12:43:10;;;;;;;6.95;2.65;;;;;;;;;;5004040;28;20049;-78
2022/04/30 12:45:39;;;;;;;11.70;2.50;;;;;;;;;;5004682;28;20058;-78
2022/04/30 12:48:06;;;;;;;6.28;2.83;;;;;;;;;;5005539;28;20128;-79
2022/04/30 12:50:33;;;;;;;8.20;2.53;;;;;;;;;;5005600;28;20097;-78
2022/04/30 12:52:59;;;;;;;6.55;2.55;;;;;;;;;;5003016;28;20059;-79
2022/04/30 12:55:28;;;;;;;6.97;2.20;;;;;;;;;;5004192;28;20129;-79
2022/04/30 12:57:55;;;;;;;10.32;2.97;;;;;;;;;;5003129;28;20606;-79
2022/04/30 13:00:21;;;;;;;8.23;2.88;;;;;;;;;;5005837;28;20050;-78
2022/04/30 13:02:47;;;;;;;7.15;2.70;;;;;;;;;;5003834;28;20061;-78
2022/04/30 13:05:14;;;;;;;4.55;2.47;;;;;;;;;;5005839;28;20054;-78
2022/04/30 13:07:43;;;;;;;7.93;2.78;;;;;;;;;;5003488;28;20110;-79
2022/04/30 13:15:40;;;;;;;8.85;2.50;;;;;;;;;;5003226;28;20062;-78
2022/04/30 13:18:07;;;;;;;4.25;2.22;;;;;;;;;;5002679;28;20062;-78
2022/04/30 13:20:34;;;;;;;6.63;2.22;;;;;;;;;;5003511;28;20058;-78
2022/04/30 13:23:01;;;;;;;8.45;2.60;;;;;;;;;;5004153;28;20053;-78
2022/04/30 13:25:29;;;;;;;5.53;2.60;;;;;;;;;;4997926;28;20192;-78
2022/04/30 13:27:56;;;;;;;8.27;2.30;;;;;;;;;;5002451;28;20062;-79
2022/04/30 13:30:23;;;;;;;6.40;2.35;;;;;;;;;;5004474;28;20109;-79
2022/04/30 13:32:50;;;;;;;5.55;2.60;;;;;;;;;;5003746;28;20058;-77
2022/04/30 13:35:17;;;;;;;5.63;2.33;;;;;;;;;;5006801;28;20137;-79
2022/04/30 13:37:48;;;;;;;6.55;2.53;;;;;;;;;;4998096;28;20061;-79
2022/04/30 13:40:16;;;;;;;5.35;2.45;;;;;;;;;;5009300;28;20058;-78
2022/04/30 13:42:43;;;;;;;5.28;2.47;;;;;;;;;;5005032;28;20051;-78
2022/04/30 13:45:10;;;;;;;6.20;2.55;;;;;;;;;;5005811;28;20169;-78
2022/04/30 13:47:36;;;;;;;5.82;2.47;;;;;;;;;;5005380;28;20519;-77
2022/04/30 13:50:06;;;;;;;6.93;2.47;;;;;;;;;;5005033;28;20722;-77
2022/04/30 13:52:33;;;;;;;7.25;2.55;;;;;;;;;;4999519;28;20051;-78
2022/04/30 13:55:00;;;;;;;8.30;2.40;;;;;;;;;;5004521;28;20064;-77
2022/04/30 13:57:26;;;;;;;5.35;2.42;;;;;;;;;;5006038;28;20140;-77
2022/04/30 13:59:53;;;;;;;8.50;2.70;;;;;;;;;;5005590;28;20085;-77
2022/04/30 14:02:20;;;;;;;8.57;2.42;;;;;;;;;;5005748;28;20141;-77
2022/04/30 14:04:46;;;;;;;7.00;2.45;;;;;;;;;;5006486;28;20054;-77
2022/04/30 14:07:13;;;;;;;6.38;2.65;;;;;;;;;;5005567;28;20147;-77
2022/04/30 14:09:39;;;;;;;5.82;2.20;;;;;;;;;;4999570;28;20102;-78
2022/04/30 14:12:25;;;;;;;4.75;2.38;;;;;;;;;;4997524;28;20050;-77
2022/04/30 14:14:58;;;;;;;5.95;2.50;;;;;;;;;;5004501;28;20049;-77
2022/04/30 14:20:14;;;;;;;8.13;2.85;;;;;;;;;;5003321;28;20058;-77
2022/04/30 14:22:40;;;;;;;5.90;2.83;;;;;;;;;;4998530;28;21200;-77
2022/04/30 14:25:08;;;;;;;5.43;2.72;;;;;;;;;;4996147;28;20051;-77
2022/04/30 14:27:36;;;;;;;5.07;2.30;;;;;;;;;;5015898;28;20357;-77
2022/04/30 14:30:06;;;;;;;5.13;3.10;;;;;;;;;;5005209;28;20142;-77
2022/04/30 14:32:34;;;;;;;7.90;2.88;;;;;;;;;;5000875;28;20057;-77
2022/04/30 14:35:01;;;;;;;4.85;2.42;;;;;;;;;;4988565;28;20164;-77
2022/04/30 14:37:32;;;;;;;5.88;2.80;;;;;;;;;;5020877;28;20489;-78
2022/04/30 14:40:01;;;;;;;7.72;2.80;;;;;;;;;;5004440;28;20141;-77
2022/04/30 14:42:28;;;;;;;5.53;2.47;;;;;;;;;;5003390;28;20050;-77
2022/04/30 14:44:55;;;;;;;5.45;2.63;;;;;;;;;;4988498;28;20063;-77
2022/04/30 14:47:21;;;;;;;6.45;2.13;;;;;;;;;;5001818;28;20054;-77
2022/04/30 14:50:05;;;;;;;4.43;2.20;;;;;;;;;;4998877;28;20058;-77
2022/04/30 14:52:31;;;;;;;4.85;2.15;;;;;;;;;;5006302;28;20061;-77
2022/04/30 14:54:58;;;;;;;4.65;2.10;;;;;;;;;;5021019;28;20065;-77
2022/04/30 14:57:25;;;;;;;5.07;2.58;;;;;;;;;;5003269;28;20046;-78
2022/04/30 14:59:52;;;;;;;4.40;2.30;;;;;;;;;;5002999;28;20054;-77
2022/04/30 15:02:18;;;;;;;7.97;3.42;;;;;;;;;;5003120;28;20793;-79
2022/04/30 15:04:45;;;;;;;6.72;2.80;;;;;;;;;;5004126;28;20054;-77
2022/04/30 15:07:13;;;;;;;5.60;2.40;;;;;;;;;;5002665;28;20546;-77
2022/04/30 15:09:42;;;;;;;8.52;2.80;;;;;;;;;;5002642;28;20050;-77
2022/04/30 15:12:10;;;;;;;7.20;2.38;;;;;;;;;;5015627;28;20062;-77
2022/04/30 15:14:37;;;;;;;7.15;2.90;;;;;;;;;;4985091;28;20063;-77
2022/04/30 15:17:05;;;;;;;4.50;2.28;;;;;;;;;;4991321;28;20057;-77
2022/04/30 15:19:32;;;;;;;6.90;2.45;;;;;;;;;;5000252;28;20054;-77
2022/04/30 15:22:00;;;;;;;7.15;2.40;;;;;;;;;;5002690;28;20133;-77
2022/04/30 15:24:27;;;;;;;7.65;2.65;;;;;;;;;;5018426;28;20145;-77
2022/04/30 15:26:53;;;;;;;4.50;2.30;;;;;;;;;;5004057;28;20064;-78
2022/04/30 15:29:27;;;;;;;5.43;2.63;;;;;;;;;;5002166;28;20141;-77
2022/04/30 15:31:57;;;;;;;6.68;2.53;;;;;;;;;;5004241;28;20521;-77
2022/04/30 15:34:24;;;;;;;6.35;2.35;;;;;;;;;;5003839;28;20054;-77
2022/04/30 15:36:51;;;;;;;4.78;2.33;;;;;;;;;;5019481;28;20146;-77
2022/04/30 15:39:18;;;;;;;6.63;2.53;;;;;;;;;;5003689;28;20065;-77
2022/04/30 15:41:44;;;;;;;4.38;2.22;;;;;;;;;;4990081;28;20521;-77
2022/04/30 15:44:11;;;;;;;4.05;2.08;;;;;;;;;;5004060;28;20069;-76